createdAt,value
2023-04-22T00:02:03.000Z,7.20
2023-04-22T00:04:34.458Z,6.70
2023-04-22T00:07:03.208Z,6.60
2023-04-22T00:09:32.317Z,7.10
2023-04-22T00:12:02.735Z,5.60
2023-04-22T00:14:31.928Z,5.40
2023-04-22T00:17:01.757Z,6.10
2023-04-22T00:19:32.168Z,5.30
2023-04-22T00:22:00.550Z,5.70
2023-04-22T00:24:30.613Z,6.00
2023-04-22T00:26:59.919Z,5.40
2023-04-22T00:29:29.833Z,5.40
2023-04-22T00:31:58.134Z,5.10
2023-04-22T00:34:27.059Z,4.50
2023-04-22T00:36:55.401Z,4.60
2023-04-22T00:39:25.305Z,4.60
2023-04-22T00:41:54.892Z,5.00
2023-04-22T00:44:23.074Z,4.90
2023-04-22T00:46:51.554Z,4.60
2023-04-22T00:49:21.106Z,4.40
2023-04-22T00:51:49.671Z,4.20
2023-04-22T00:54:18.146Z,4.20
2023-04-22T00:56:47.134Z,4.70
2023-04-22T00:59:15.379Z,4.00
2023-04-22T01:01:43.631Z,4.20
2023-04-22T01:04:15.344Z,4.70
2023-04-22T01:06:46.876Z,4.70
2023-04-22T01:09:15.364Z,4.60
2023-04-22T01:11:43.630Z,3.80
2023-04-22T01:14:11.915Z,3.90
2023-04-22T01:16:41.363Z,4.10
2023-04-22T01:19:09.797Z,4.90
2023-04-22T01:21:39.920Z,4.30
2023-04-22T01:24:11.247Z,4.50
2023-04-22T01:26:39.539Z,4.50
2023-04-22T01:29:07.924Z,4.00
2023-04-22T01:31:36.585Z,4.00
2023-04-22T01:34:05.610Z,4.00
2023-04-22T01:36:34.904Z,4.30
2023-04-22T01:39:04.615Z,4.40
2023-04-22T01:41:32.891Z,4.30
2023-04-22T01:44:01.479Z,4.40
2023-04-22T01:46:36.047Z,4.40
2023-04-22T01:49:04.386Z,4.70
2023-04-22T01:51:32.931Z,4.10
2023-04-22T01:54:05.565Z,4.00
2023-04-22T01:56:34.535Z,4.10
2023-04-22T01:59:03.224Z,4.80
2023-04-22T02:01:36.656Z,5.00
2023-04-22T02:04:07.966Z,5.50
2023-04-22T02:06:36.671Z,4.90
2023-04-22T02:09:06.873Z,4.10
2023-04-22T02:11:36.997Z,4.10
2023-04-22T02:14:05.585Z,3.60
2023-04-22T02:16:35.907Z,4.10
2023-04-22T02:19:05.817Z,4.30
2023-04-22T02:21:35.023Z,3.90
2023-04-22T02:24:06.366Z,4.70
2023-04-22T02:26:36.176Z,3.80
2023-04-22T02:29:04.775Z,4.00
2023-04-22T02:31:33.596Z,4.70
2023-04-22T02:34:03.879Z,4.60
2023-04-22T02:36:32.662Z,4.70
2023-04-22T02:39:05.048Z,4.30
2023-04-22T02:41:36.248Z,4.80
2023-04-22T02:44:04.963Z,4.90
2023-04-22T02:46:34.398Z,4.50
2023-04-22T02:49:05.413Z,4.60
2023-04-22T02:51:34.308Z,4.60
2023-04-22T02:54:02.887Z,4.90
2023-04-22T02:56:34.517Z,4.10
2023-04-22T02:59:03.871Z,5.00
2023-04-22T03:01:35.754Z,4.60
2023-04-22T03:04:10.819Z,4.40
2023-04-22T03:06:42.804Z,4.40
2023-04-22T03:09:12.214Z,5.30
2023-04-22T03:11:40.795Z,4.70
2023-04-22T03:14:14.294Z,5.30
2023-04-22T03:16:42.794Z,4.40
2023-04-22T03:19:11.261Z,5.30
2023-04-22T03:21:39.740Z,5.10
2023-04-22T03:24:08.424Z,4.90
2023-04-22T03:26:37.737Z,4.80
2023-04-22T03:29:07.950Z,4.80
2023-04-22T03:31:38.056Z,4.50
2023-04-22T03:34:07.472Z,4.40
2023-04-22T03:36:36.159Z,4.80
2023-04-22T03:39:04.547Z,5.90
2023-04-22T03:41:33.634Z,5.80
2023-04-22T03:44:02.437Z,6.00
2023-04-22T03:46:33.101Z,5.80
2023-04-22T03:49:09.079Z,4.50
2023-04-22T03:51:37.507Z,4.60
2023-04-22T03:54:09.254Z,4.20
2023-04-22T03:56:40.299Z,4.00
2023-04-22T03:59:08.679Z,4.20
2023-04-22T04:01:38.072Z,3.80
2023-04-22T04:04:08.767Z,4.60
2023-04-22T04:06:41.702Z,4.50
2023-04-22T04:09:10.281Z,4.30
2023-04-22T04:11:38.573Z,3.80
2023-04-22T04:14:07.043Z,4.60
2023-04-22T04:16:47.783Z,4.10
2023-04-22T04:19:37.405Z,4.50
2023-04-22T04:22:07.198Z,4.10
2023-04-22T04:24:42.354Z,4.20
2023-04-22T04:27:21.357Z,3.50
2023-04-22T04:29:53.340Z,4.60
2023-04-22T04:32:37.072Z,4.00
2023-04-22T04:35:08.865Z,4.00
2023-04-22T04:37:41.089Z,4.20
2023-04-22T04:40:12.539Z,4.20
2023-04-22T04:43:16.564Z,4.20
2023-04-22T04:45:52.712Z,4.80
2023-04-22T04:48:28.679Z,4.40
2023-04-22T04:51:01.965Z,4.30
2023-04-22T04:53:33.112Z,4.10
2023-04-22T04:56:02.514Z,4.40
2023-04-22T04:58:32.126Z,4.70
2023-04-22T05:01:18.280Z,4.50
2023-04-22T05:03:50.205Z,4.50
2023-04-22T05:06:21.035Z,4.90
2023-04-22T05:08:53.802Z,4.00
2023-04-22T05:11:22.712Z,3.70
2023-04-22T05:13:52.227Z,4.00
2023-04-22T05:16:26.516Z,4.40
2023-04-22T05:18:55.120Z,4.60
2023-04-22T05:21:25.247Z,4.50
2023-04-22T05:23:53.719Z,5.10
2023-04-22T05:26:22.189Z,4.50
2023-04-22T05:28:50.875Z,4.50
2023-04-22T05:31:22.786Z,5.00
2023-04-22T05:33:51.016Z,4.50
2023-04-22T05:36:19.296Z,4.70
2023-04-22T05:38:50.053Z,5.80
2023-04-22T05:41:18.717Z,4.90
2023-04-22T05:43:47.188Z,4.90
2023-04-22T05:46:18.293Z,5.20
2023-04-22T05:48:50.197Z,5.00
2023-04-22T05:51:38.640Z,5.40
2023-04-22T05:54:07.540Z,5.70
2023-04-22T05:56:36.734Z,4.90
2023-04-22T05:59:05.421Z,5.50
2023-04-22T06:01:34.722Z,5.30
2023-04-22T06:04:10.689Z,5.40
2023-04-22T06:06:40.391Z,5.30
2023-04-22T06:09:08.875Z,5.40
2023-04-22T06:11:37.454Z,4.90
2023-04-22T06:14:05.832Z,5.60
2023-04-22T06:16:34.733Z,5.20
2023-04-22T06:19:09.210Z,5.60
2023-04-22T06:21:40.160Z,5.40
2023-04-22T06:24:11.543Z,5.20
2023-04-22T06:26:42.281Z,5.30
2023-04-22T06:29:19.023Z,5.20
2023-04-22T06:31:49.452Z,5.50
2023-04-22T06:34:19.286Z,4.80
2023-04-22T06:36:47.873Z,4.70
2023-04-22T06:39:17.275Z,5.10
2023-04-22T06:42:04.594Z,5.60
2023-04-22T06:44:50.590Z,5.70
2023-04-22T06:47:37.299Z,5.10
2023-04-22T06:50:16.838Z,5.40
2023-04-22T06:53:17.889Z,5.40
2023-04-22T06:55:47.182Z,5.40
2023-04-22T06:58:16.078Z,5.40
2023-04-22T07:00:44.889Z,5.20
2023-04-22T07:03:13.500Z,4.80
2023-04-22T07:05:42.234Z,4.80
2023-04-22T07:08:12.047Z,5.10
2023-04-22T07:10:41.246Z,4.90
2023-04-22T07:13:49.357Z,5.00
2023-04-22T07:16:17.625Z,5.40
2023-04-22T07:18:46.010Z,4.90
2023-04-22T07:21:14.107Z,5.00
2023-04-22T07:23:42.569Z,5.00
2023-04-22T07:26:13.146Z,5.00
2023-04-22T07:28:42.097Z,4.90
2023-04-22T07:31:10.982Z,5.40
2023-04-22T07:33:41.460Z,5.40
2023-04-22T07:36:13.576Z,5.90
2023-04-22T07:38:41.749Z,5.00
2023-04-22T07:41:10.338Z,5.50
2023-04-22T07:43:38.711Z,5.40
2023-04-22T07:46:07.649Z,5.50
2023-04-22T07:48:36.900Z,5.10
2023-04-22T07:51:05.391Z,5.60
2023-04-22T07:53:36.735Z,5.30
2023-04-22T07:56:05.527Z,5.10
2023-04-22T07:58:33.902Z,5.20
2023-04-22T08:01:04.244Z,4.90
2023-04-22T08:03:33.103Z,5.00
2023-04-22T08:06:05.392Z,5.40
2023-04-22T08:08:33.784Z,5.50
2023-04-22T08:11:01.947Z,5.70
2023-04-22T08:13:31.147Z,5.20
2023-04-22T08:16:01.114Z,5.00
2023-04-22T08:18:29.953Z,4.90
2023-04-22T08:20:58.233Z,4.60
2023-04-22T08:23:26.542Z,5.70
2023-04-22T08:25:54.992Z,5.20
2023-04-22T08:28:23.266Z,5.50
2023-04-22T08:30:51.645Z,6.40
2023-04-22T08:33:20.022Z,5.60
2023-04-22T08:35:48.399Z,6.40
2023-04-22T08:38:16.577Z,6.10
2023-04-22T08:40:44.958Z,6.00
2023-04-22T08:43:13.233Z,6.30
2023-04-22T08:45:41.515Z,5.80
2023-04-22T08:48:10.916Z,5.20
2023-04-22T08:50:40.317Z,5.80
2023-04-22T08:53:08.697Z,5.60
2023-04-22T08:55:37.083Z,5.70
2023-04-22T08:58:06.433Z,5.60
2023-04-22T09:00:39.478Z,5.90
2023-04-22T09:03:07.863Z,5.90
2023-04-22T09:05:37.948Z,6.30
2023-04-22T09:08:08.243Z,5.90
2023-04-22T09:10:39.591Z,5.90
2023-04-22T09:13:08.733Z,5.80
2023-04-22T09:15:36.882Z,5.80
2023-04-22T09:18:06.032Z,5.70
2023-04-22T09:20:34.387Z,5.60
2023-04-22T09:23:04.421Z,5.40
2023-04-22T09:28:03.820Z,5.10
2023-04-22T09:30:38.842Z,5.20
2023-04-22T09:33:07.530Z,5.30
2023-04-22T09:35:40.415Z,5.20
2023-04-22T09:38:12.186Z,5.30
2023-04-22T09:40:46.929Z,4.80
2023-04-22T09:43:18.468Z,4.60
2023-04-22T09:45:46.953Z,5.10
2023-04-22T09:48:18.163Z,4.60
2023-04-22T09:53:21.270Z,5.20
2023-04-22T09:55:52.859Z,4.60
2023-04-22T09:58:27.249Z,5.00
2023-04-22T10:00:59.336Z,4.40
2023-04-22T10:03:27.809Z,5.10
2023-04-22T10:08:28.780Z,4.90
2023-04-22T10:10:57.164Z,4.60
2023-04-22T10:13:26.261Z,5.00
2023-04-22T10:15:56.715Z,4.50
2023-04-22T10:18:27.132Z,4.70
2023-04-22T10:20:56.952Z,4.50
2023-04-22T10:23:25.922Z,4.90
2023-04-22T10:25:55.047Z,4.70
2023-04-22T10:28:25.919Z,4.40
2023-04-22T10:30:55.166Z,3.70
2023-04-22T10:33:31.840Z,3.70
2023-04-22T10:36:11.874Z,4.00
2023-04-22T10:38:42.388Z,4.20
2023-04-22T10:41:15.462Z,3.70
2023-04-22T10:43:47.744Z,3.90
2023-04-22T10:46:38.609Z,3.90
2023-04-22T10:50:16.328Z,3.50
2023-04-22T10:52:51.710Z,3.60
2023-04-22T10:55:20.165Z,4.00
2023-04-22T10:57:50.005Z,3.50
2023-04-22T11:00:54.525Z,3.40
2023-04-22T11:03:30.784Z,3.40
2023-04-22T11:06:19.549Z,3.40
2023-04-22T11:08:49.087Z,4.40
2023-04-22T11:11:18.743Z,3.70
2023-04-22T11:13:52.895Z,4.60
2023-04-22T11:16:22.779Z,4.00
2023-04-22T11:18:51.394Z,4.20
2023-04-22T11:21:19.896Z,3.00
2023-04-22T11:23:53.307Z,3.50
2023-04-22T11:26:35.098Z,3.00
2023-04-22T11:29:03.730Z,3.20
2023-04-22T11:31:32.149Z,3.80
2023-04-22T11:35:58.919Z,3.50
2023-04-22T11:38:27.937Z,7.50
2023-04-22T11:40:58.073Z,5.60
2023-04-22T11:43:27.284Z,3.60
2023-04-22T11:45:57.793Z,3.00
2023-04-22T11:48:26.346Z,2.70
2023-04-22T11:51:08.927Z,2.30
2023-04-22T11:53:38.881Z,2.70
2023-04-22T11:56:08.253Z,2.70
2023-04-22T11:58:39.708Z,2.80
2023-04-22T12:01:12.742Z,2.70
2023-04-22T12:03:42.356Z,2.60
2023-04-22T12:06:15.173Z,3.30
2023-04-22T12:08:45.173Z,2.90
2023-04-22T12:11:15.196Z,2.90
2023-04-22T12:13:51.590Z,2.60
2023-04-22T12:16:20.259Z,3.10
2023-04-22T12:18:55.296Z,2.70
2023-04-22T12:23:58.040Z,2.80
2023-04-22T12:26:29.842Z,2.60
2023-04-22T12:29:04.141Z,2.70
2023-04-22T12:31:35.024Z,2.70
2023-04-22T12:34:07.394Z,2.70
2023-04-22T12:36:35.670Z,2.70
2023-04-22T12:39:06.940Z,2.50
2023-04-22T12:41:38.155Z,2.70
2023-04-22T12:44:06.855Z,2.40
2023-04-22T12:46:36.305Z,2.70
2023-04-22T12:49:05.865Z,2.60
2023-04-22T12:51:35.099Z,2.50
2023-04-22T12:54:03.365Z,2.60
2023-04-22T12:56:33.078Z,2.30
2023-04-22T12:59:03.606Z,2.30
2023-04-22T13:01:33.921Z,2.40
2023-04-22T13:04:04.321Z,2.00
2023-04-22T13:06:33.132Z,2.20
2023-04-22T13:09:01.592Z,2.00
2023-04-22T13:11:32.048Z,1.90
2023-04-22T13:14:00.593Z,1.80
2023-04-22T13:16:29.430Z,1.60
2023-04-22T13:34:52.828Z,1.80
2023-04-22T13:37:21.760Z,2.20
2023-04-22T13:39:50.164Z,1.70
2023-04-22T13:42:18.795Z,1.60
2023-04-22T13:44:47.679Z,1.60
2023-04-22T13:47:15.759Z,1.40
2023-04-22T13:49:44.291Z,1.50
2023-04-22T13:52:12.597Z,1.40
2023-04-22T13:54:42.857Z,1.40
2023-04-22T13:57:12.647Z,1.30
2023-04-22T13:59:41.749Z,1.40
2023-04-22T14:02:10.728Z,1.20
2023-04-22T14:04:38.967Z,1.20
2023-04-22T14:07:07.264Z,1.20
2023-04-22T14:09:35.692Z,1.20
2023-04-22T14:12:04.890Z,1.20
2023-04-22T14:14:35.225Z,1.00
2023-04-22T14:17:04.513Z,1.20
2023-04-22T14:19:33.967Z,1.20
2023-04-22T14:22:02.695Z,1.20
2023-04-22T14:24:31.218Z,1.30
2023-04-22T14:27:00.074Z,1.00
2023-04-22T14:29:30.598Z,1.40
2023-04-22T14:32:00.049Z,1.10
2023-04-22T14:34:28.405Z,1.00
2023-04-22T14:36:56.624Z,1.10
2023-04-22T14:39:24.964Z,1.10
2023-04-22T14:41:53.814Z,1.10
2023-04-22T14:44:22.151Z,1.10
2023-04-22T14:46:50.471Z,1.10
2023-04-22T14:49:18.767Z,1.30
2023-04-22T14:51:48.853Z,1.00
2023-04-22T14:54:17.297Z,1.20
2023-04-22T14:56:45.447Z,1.50
2023-04-22T14:59:16.093Z,2.10
2023-04-22T15:01:44.442Z,2.70
2023-04-22T15:04:14.974Z,3.10
2023-04-22T15:06:43.213Z,1.70
2023-04-22T15:09:11.654Z,1.00
2023-04-22T15:11:39.781Z,1.20
2023-04-22T15:14:08.035Z,1.10
2023-04-22T15:16:37.098Z,1.30
2023-04-22T15:19:05.607Z,1.10
2023-04-22T15:21:33.984Z,1.00
2023-04-22T15:24:02.325Z,1.20
2023-04-22T15:26:31.083Z,1.00
2023-04-22T15:29:00.446Z,1.00
2023-04-22T15:31:28.713Z,1.10
2023-04-22T15:33:56.949Z,1.10
2023-04-22T15:36:25.645Z,1.20
2023-04-22T15:38:56.309Z,1.00
2023-04-22T15:41:24.637Z,0.90
2023-04-22T15:43:53.211Z,1.00
2023-04-22T15:46:21.824Z,9.80
2023-04-22T15:48:50.647Z,1.00
2023-04-22T15:51:19.335Z,1.20
2023-04-22T15:53:48.389Z,0.90
2023-04-22T15:56:16.846Z,0.90
2023-04-22T15:58:45.386Z,1.10
2023-04-22T16:01:19.232Z,0.90
2023-04-22T16:03:49.108Z,0.90
2023-04-22T16:06:18.741Z,0.90
2023-04-22T16:08:56.629Z,1.10
2023-04-22T16:11:26.442Z,1.00
2023-04-22T16:13:54.713Z,1.10
2023-04-22T16:18:58.022Z,0.90
2023-04-22T16:21:26.653Z,1.00
2023-04-22T16:23:55.588Z,0.90
2023-04-22T16:26:23.791Z,0.90
2023-04-22T16:28:52.265Z,1.10
2023-04-22T16:31:23.191Z,0.90
2023-04-22T16:33:51.986Z,0.90
2023-04-22T16:36:20.274Z,0.80
2023-04-22T16:38:49.076Z,0.80
2023-04-22T16:41:17.358Z,0.90
2023-04-22T16:43:46.035Z,17.90
2023-04-22T16:46:14.828Z,1.50
2023-04-22T16:48:46.170Z,0.90
2023-04-22T16:51:14.929Z,1.20
2023-04-22T16:56:17.766Z,1.00
2023-04-22T16:58:46.135Z,0.90
2023-04-22T17:01:14.801Z,1.10
2023-04-22T17:03:43.320Z,1.10
2023-04-22T17:06:15.776Z,1.00
2023-04-22T17:08:44.262Z,1.00
2023-04-22T17:11:12.648Z,1.00
2023-04-22T17:13:43.914Z,0.90
2023-04-22T17:16:12.652Z,1.00
2023-04-22T17:18:43.830Z,1.20
2023-04-22T17:21:12.201Z,1.10
2023-04-22T17:23:43.353Z,0.80
2023-04-22T17:26:11.935Z,0.90
2023-04-22T17:28:40.314Z,1.10
2023-04-22T17:31:08.741Z,1.50
2023-04-22T17:33:37.703Z,1.80
2023-04-22T17:36:07.220Z,1.80
2023-04-22T17:38:38.635Z,1.80
2023-04-22T17:41:07.541Z,1.80
2023-04-22T17:43:36.181Z,1.30
2023-04-22T17:46:04.491Z,1.40
2023-04-22T17:48:33.396Z,1.30
2023-04-22T17:51:05.256Z,2.10
2023-04-22T17:53:42.972Z,2.10
2023-04-22T17:56:23.621Z,2.90
2023-04-22T17:58:51.992Z,2.10
2023-04-22T18:01:20.726Z,2.00
2023-04-22T18:03:50.138Z,2.00
2023-04-22T18:06:21.555Z,2.70
2023-04-22T18:08:50.011Z,1.90
2023-04-22T18:11:19.025Z,1.90
2023-04-22T18:13:47.473Z,1.40
2023-04-22T18:16:15.876Z,1.20
2023-04-22T18:18:44.303Z,1.20
2023-04-22T18:21:12.506Z,1.10
2023-04-22T18:23:40.881Z,1.30
2023-04-22T18:26:12.558Z,1.00
2023-04-22T18:28:43.708Z,1.10
2023-04-22T18:31:11.979Z,1.50
2023-04-22T18:33:43.337Z,1.30
2023-04-22T18:36:12.428Z,1.50
2023-04-22T18:38:42.237Z,1.20
2023-04-22T18:41:13.684Z,1.30
2023-04-22T18:43:42.886Z,1.40
2023-04-22T18:46:11.145Z,1.10
2023-04-22T18:48:41.792Z,1.40
2023-04-22T18:51:10.276Z,1.40
2023-04-22T18:53:38.856Z,2.00
2023-04-22T18:56:08.363Z,3.20
2023-04-22T18:58:37.130Z,3.50
2023-04-22T19:01:06.857Z,4.10
2023-04-22T19:03:35.945Z,5.00
2023-04-22T19:06:04.544Z,5.50
2023-04-22T19:08:33.229Z,5.70
2023-04-22T19:11:01.608Z,6.50
2023-04-22T19:13:30.541Z,6.70
2023-04-22T19:15:59.020Z,7.50
2023-04-22T19:18:28.077Z,7.20
2023-04-22T19:20:56.370Z,6.80
2023-04-22T19:23:25.332Z,7.00
2023-04-22T19:25:53.620Z,7.90
2023-04-22T19:28:22.636Z,7.70
2023-04-22T19:30:50.993Z,7.80
2023-04-22T19:33:19.738Z,7.70
2023-04-22T19:35:48.407Z,7.90
2023-04-22T19:38:19.248Z,7.80
2023-04-22T19:40:47.787Z,7.50
2023-04-22T20:09:34.423Z,9.50
2023-04-22T20:12:05.504Z,11.10
2023-04-22T20:14:33.744Z,10.70
2023-04-22T20:17:02.838Z,12.10
2023-04-22T20:19:31.918Z,12.50
2023-04-22T20:22:00.426Z,13.20
2023-04-22T20:24:29.737Z,12.40
2023-04-22T20:26:59.634Z,9.60
2023-04-22T20:29:30.937Z,8.60
2023-04-22T20:32:00.106Z,7.40
2023-04-22T20:34:30.634Z,7.00
2023-04-22T20:37:02.864Z,5.50
2023-04-22T20:39:31.359Z,6.80
2023-04-22T20:41:59.689Z,6.60
2023-04-22T20:44:29.242Z,5.70
2023-04-22T20:46:59.175Z,5.70
2023-04-22T20:49:27.952Z,5.70
2023-04-22T20:51:57.660Z,4.90
2023-04-22T20:54:29.340Z,5.20
2023-04-22T20:56:57.978Z,5.00
2023-04-22T20:59:26.949Z,5.30
2023-04-22T21:01:56.017Z,4.70
2023-04-22T21:04:25.551Z,3.90
2023-04-22T21:06:55.547Z,3.60
2023-04-22T21:09:26.273Z,7.10
2023-04-22T21:11:54.893Z,8.30
2023-04-22T21:14:26.437Z,7.40
2023-04-22T21:17:05.209Z,6.40
2023-04-22T21:19:34.483Z,7.10
2023-04-22T21:22:05.277Z,7.70
2023-04-22T21:24:36.006Z,5.90
2023-04-22T21:27:04.642Z,5.30
2023-04-22T21:29:33.547Z,5.40
2023-04-22T21:32:09.452Z,5.30
2023-04-22T21:34:38.373Z,5.20
2023-04-22T21:37:07.379Z,6.10
2023-04-22T21:39:36.022Z,5.60
2023-04-22T21:42:08.638Z,5.60
2023-04-22T21:44:37.681Z,5.70
2023-04-22T21:47:07.032Z,5.90
2023-04-22T21:49:36.092Z,7.00
2023-04-22T21:52:04.174Z,5.60
2023-04-22T21:54:32.661Z,6.10
2023-04-22T21:57:01.643Z,5.70
2023-04-22T21:59:30.291Z,5.90
2023-04-22T22:01:58.641Z,6.00
2023-04-22T22:04:27.147Z,5.50
2023-04-22T22:06:55.841Z,6.30
2023-04-22T22:09:24.012Z,6.40
2023-04-22T22:11:52.495Z,9.70
2023-04-22T22:14:20.980Z,11.40
2023-04-22T22:16:50.093Z,10.50
2023-04-22T22:19:18.763Z,10.60
2023-04-22T22:21:46.904Z,9.80
2023-04-22T22:24:15.443Z,8.20
2023-04-22T22:26:45.976Z,6.70
2023-04-22T22:29:15.693Z,5.90
2023-04-22T22:31:47.659Z,5.40
2023-04-22T22:36:44.165Z,5.00
2023-04-22T22:39:14.575Z,4.90
2023-04-22T22:41:45.668Z,5.40
2023-04-22T22:44:13.972Z,5.10
2023-04-22T22:46:42.312Z,5.10
2023-04-22T22:49:11.078Z,5.00
2023-04-22T22:51:39.522Z,4.30
2023-04-22T22:54:17.286Z,2.90
2023-04-22T22:56:46.171Z,4.40
2023-04-22T22:59:19.578Z,3.10
2023-04-22T23:01:47.939Z,3.10
2023-04-22T23:04:16.516Z,3.90
2023-04-22T23:06:44.979Z,3.60
2023-04-22T23:09:15.304Z,3.80
2023-04-22T23:11:43.485Z,4.70
2023-04-22T23:14:11.960Z,4.20
2023-04-22T23:16:40.286Z,4.60
2023-04-22T23:19:08.720Z,4.30
2023-04-22T23:21:37.407Z,4.20
2023-04-22T23:24:06.311Z,3.90
2023-04-22T23:26:35.188Z,4.60
2023-04-22T23:29:04.911Z,3.20
2023-04-22T23:31:35.906Z,4.80
2023-04-22T23:34:05.760Z,4.90
2023-04-22T23:36:36.778Z,4.40
2023-04-22T23:39:05.987Z,4.80
2023-04-22T23:41:34.774Z,4.30
2023-04-22T23:44:03.159Z,3.90
2023-04-22T23:46:31.614Z,3.90
2023-04-22T23:49:01.757Z,4.70
2023-04-22T23:51:30.243Z,4.70
2023-04-22T23:53:58.720Z,4.50
2023-04-22T23:56:28.022Z,5.10
2023-04-22T23:58:56.565Z,4.30
